sensor_id;sensor_type;location;lat;lon;timestamp;temperature;humidity
43346;DHT22;28937;51.160;4.146;2022-07-23T00:00:30;23.00;80.00
43346;DHT22;28937;51.160;4.146;2022-07-23T00:02:55;23.00;79.80
43346;DHT22;28937;51.160;4.146;2022-07-23T00:05:21;23.00;79.80
43346;DHT22;28937;51.160;4.146;2022-07-23T00:07:47;23.00;79.90
43346;DHT22;28937;51.160;4.146;2022-07-23T00:10:12;23.00;80.10
43346;DHT22;28937;51.160;4.146;2022-07-23T00:12:38;22.80;80.10
43346;DHT22;28937;51.160;4.146;2022-07-23T00:15:07;22.80;80.00
43346;DHT22;28937;51.160;4.146;2022-07-23T00:17:34;22.80;79.90
43346;DHT22;28937;51.160;4.146;2022-07-23T00:19:59;22.80;80.00
43346;DHT22;28937;51.160;4.146;2022-07-23T00:22:25;22.80;79.90
43346;DHT22;28937;51.160;4.146;2022-07-23T00:24:51;22.80;79.80
43346;DHT22;28937;51.160;4.146;2022-07-23T00:27:17;22.80;79.90
43346;DHT22;28937;51.160;4.146;2022-07-23T00:29:42;22.70;80.00
43346;DHT22;28937;51.160;4.146;2022-07-23T00:32:08;22.70;80.00
43346;DHT22;28937;51.160;4.146;2022-07-23T00:34:33;22.60;80.20
43346;DHT22;28937;51.160;4.146;2022-07-23T00:36:59;22.70;80.20
43346;DHT22;28937;51.160;4.146;2022-07-23T00:39:24;22.70;80.20
43346;DHT22;28937;51.160;4.146;2022-07-23T00:41:51;22.70;80.30
43346;DHT22;28937;51.160;4.146;2022-07-23T00:44:22;22.70;80.30
43346;DHT22;28937;51.160;4.146;2022-07-23T00:46:56;22.70;80.30
43346;DHT22;28937;51.160;4.146;2022-07-23T00:49:24;22.70;80.50
43346;DHT22;28937;51.160;4.146;2022-07-23T00:51:51;22.70;80.60
43346;DHT22;28937;51.160;4.146;2022-07-23T00:54:17;22.60;80.60
43346;DHT22;28937;51.160;4.146;2022-07-23T00:56:44;22.60;80.50
43346;DHT22;28937;51.160;4.146;2022-07-23T00:59:11;22.60;80.40
43346;DHT22;28937;51.160;4.146;2022-07-23T01:01:37;22.60;80.50
43346;DHT22;28937;51.160;4.146;2022-07-23T01:04:02;22.50;80.50
43346;DHT22;28937;51.160;4.146;2022-07-23T01:06:28;22.50;80.60
43346;DHT22;28937;51.160;4.146;2022-07-23T01:08:54;22.50;80.70
43346;DHT22;28937;51.160;4.146;2022-07-23T01:11:21;22.50;80.80
43346;DHT22;28937;51.160;4.146;2022-07-23T01:13:47;22.50;80.80
43346;DHT22;28937;51.160;4.146;2022-07-23T01:16:13;22.50;80.70
43346;DHT22;28937;51.160;4.146;2022-07-23T01:18:39;22.50;80.70
43346;DHT22;28937;51.160;4.146;2022-07-23T01:21:04;22.50;80.70
43346;DHT22;28937;51.160;4.146;2022-07-23T01:23:30;22.40;80.70
43346;DHT22;28937;51.160;4.146;2022-07-23T01:25:56;22.40;80.50
43346;DHT22;28937;51.160;4.146;2022-07-23T01:28:21;22.50;80.80
43346;DHT22;28937;51.160;4.146;2022-07-23T01:30:47;22.40;80.90
43346;DHT22;28937;51.160;4.146;2022-07-23T01:33:13;22.30;80.90
43346;DHT22;28937;51.160;4.146;2022-07-23T01:35:39;22.40;80.90
43346;DHT22;28937;51.160;4.146;2022-07-23T01:38:05;22.30;81.00
43346;DHT22;28937;51.160;4.146;2022-07-23T01:40:31;22.40;81.20
43346;DHT22;28937;51.160;4.146;2022-07-23T01:42:57;22.40;81.10
43346;DHT22;28937;51.160;4.146;2022-07-23T01:45:22;22.30;81.10
43346;DHT22;28937;51.160;4.146;2022-07-23T01:47:48;22.30;81.10
43346;DHT22;28937;51.160;4.146;2022-07-23T01:50:14;22.30;81.10
43346;DHT22;28937;51.160;4.146;2022-07-23T01:52:39;22.30;81.30
43346;DHT22;28937;51.160;4.146;2022-07-23T01:55:06;22.30;81.30
43346;DHT22;28937;51.160;4.146;2022-07-23T01:57:32;22.20;81.30
43346;DHT22;28937;51.160;4.146;2022-07-23T02:00:00;22.30;81.40
43346;DHT22;28937;51.160;4.146;2022-07-23T02:02:26;22.20;81.40
43346;DHT22;28937;51.160;4.146;2022-07-23T02:04:51;22.20;81.40
43346;DHT22;28937;51.160;4.146;2022-07-23T02:07:17;22.20;81.50
43346;DHT22;28937;51.160;4.146;2022-07-23T02:09:43;22.20;81.60
43346;DHT22;28937;51.160;4.146;2022-07-23T02:12:08;22.20;81.70
43346;DHT22;28937;51.160;4.146;2022-07-23T02:14:34;22.20;81.70
43346;DHT22;28937;51.160;4.146;2022-07-23T02:16:59;22.10;81.60
43346;DHT22;28937;51.160;4.146;2022-07-23T02:19:25;22.10;81.80
43346;DHT22;28937;51.160;4.146;2022-07-23T02:21:51;22.10;81.80
43346;DHT22;28937;51.160;4.146;2022-07-23T02:24:17;22.10;81.90
43346;DHT22;28937;51.160;4.146;2022-07-23T02:26:42;22.10;81.90
43346;DHT22;28937;51.160;4.146;2022-07-23T02:29:08;22.10;82.00
43346;DHT22;28937;51.160;4.146;2022-07-23T02:31:34;22.10;81.90
43346;DHT22;28937;51.160;4.146;2022-07-23T02:34:00;22.10;82.10
43346;DHT22;28937;51.160;4.146;2022-07-23T02:36:26;22.00;82.20
43346;DHT22;28937;51.160;4.146;2022-07-23T02:38:52;22.10;82.20
43346;DHT22;28937;51.160;4.146;2022-07-23T02:41:17;22.00;82.20
43346;DHT22;28937;51.160;4.146;2022-07-23T02:43:43;22.00;82.20
43346;DHT22;28937;51.160;4.146;2022-07-23T02:46:09;22.00;82.30
43346;DHT22;28937;51.160;4.146;2022-07-23T02:48:34;22.00;82.50
43346;DHT22;28937;51.160;4.146;2022-07-23T02:51:00;22.00;82.60
43346;DHT22;28937;51.160;4.146;2022-07-23T02:53:25;22.00;82.50
43346;DHT22;28937;51.160;4.146;2022-07-23T02:55:51;21.90;82.60
43346;DHT22;28937;51.160;4.146;2022-07-23T02:58:17;21.90;82.50
43346;DHT22;28937;51.160;4.146;2022-07-23T03:00:43;21.90;82.60
43346;DHT22;28937;51.160;4.146;2022-07-23T03:03:08;21.90;82.70
43346;DHT22;28937;51.160;4.146;2022-07-23T03:05:34;21.90;82.70
43346;DHT22;28937;51.160;4.146;2022-07-23T03:08:00;21.90;82.80
43346;DHT22;28937;51.160;4.146;2022-07-23T03:10:26;21.90;82.80
43346;DHT22;28937;51.160;4.146;2022-07-23T03:12:51;21.90;82.90
43346;DHT22;28937;51.160;4.146;2022-07-23T03:15:17;21.90;83.00
43346;DHT22;28937;51.160;4.146;2022-07-23T03:17:43;21.80;83.00
43346;DHT22;28937;51.160;4.146;2022-07-23T03:20:09;21.80;83.00
43346;DHT22;28937;51.160;4.146;2022-07-23T03:22:34;21.80;83.10
43346;DHT22;28937;51.160;4.146;2022-07-23T03:25:00;21.80;83.30
43346;DHT22;28937;51.160;4.146;2022-07-23T03:27:28;21.80;83.30
43346;DHT22;28937;51.160;4.146;2022-07-23T03:29:56;21.80;83.40
43346;DHT22;28937;51.160;4.146;2022-07-23T03:32:22;21.70;83.20
43346;DHT22;28937;51.160;4.146;2022-07-23T03:34:48;21.70;83.20
43346;DHT22;28937;51.160;4.146;2022-07-23T03:37:14;21.80;83.30
43346;DHT22;28937;51.160;4.146;2022-07-23T03:39:40;21.70;83.30
43346;DHT22;28937;51.160;4.146;2022-07-23T03:42:06;21.70;83.50
43346;DHT22;28937;51.160;4.146;2022-07-23T03:44:32;21.70;83.50
43346;DHT22;28937;51.160;4.146;2022-07-23T03:46:58;21.70;83.50
43346;DHT22;28937;51.160;4.146;2022-07-23T03:49:23;21.70;83.60
43346;DHT22;28937;51.160;4.146;2022-07-23T03:51:49;21.60;83.70
43346;DHT22;28937;51.160;4.146;2022-07-23T03:54:15;21.60;83.50
43346;DHT22;28937;51.160;4.146;2022-07-23T03:56:40;21.60;83.60
43346;DHT22;28937;51.160;4.146;2022-07-23T03:59:06;21.60;83.50
43346;DHT22;28937;51.160;4.146;2022-07-23T04:01:31;21.60;83.70
43346;DHT22;28937;51.160;4.146;2022-07-23T04:03:57;21.60;83.70
43346;DHT22;28937;51.160;4.146;2022-07-23T04:06:23;21.60;83.80
43346;DHT22;28937;51.160;4.146;2022-07-23T04:08:48;21.60;83.90
43346;DHT22;28937;51.160;4.146;2022-07-23T04:11:14;21.50;84.00
43346;DHT22;28937;51.160;4.146;2022-07-23T04:13:40;21.50;84.10
43346;DHT22;28937;51.160;4.146;2022-07-23T04:16:05;21.60;84.30
43346;DHT22;28937;51.160;4.146;2022-07-23T04:18:31;21.50;84.10
43346;DHT22;28937;51.160;4.146;2022-07-23T04:20:57;21.50;84.10
43346;DHT22;28937;51.160;4.146;2022-07-23T04:23:23;21.50;84.40
43346;DHT22;28937;51.160;4.146;2022-07-23T04:25:48;21.50;85.20
43346;DHT22;28937;51.160;4.146;2022-07-23T04:28:14;21.50;84.60
43346;DHT22;28937;51.160;4.146;2022-07-23T04:30:40;21.50;84.60
43346;DHT22;28937;51.160;4.146;2022-07-23T04:33:06;21.50;84.60
43346;DHT22;28937;51.160;4.146;2022-07-23T04:35:33;21.50;84.80
43346;DHT22;28937;51.160;4.146;2022-07-23T04:37:58;21.50;84.90
43346;DHT22;28937;51.160;4.146;2022-07-23T04:40:24;21.40;85.00
43346;DHT22;28937;51.160;4.146;2022-07-23T04:42:50;21.40;85.00
43346;DHT22;28937;51.160;4.146;2022-07-23T04:45:16;21.40;85.00
43346;DHT22;28937;51.160;4.146;2022-07-23T04:47:41;21.50;85.10
43346;DHT22;28937;51.160;4.146;2022-07-23T04:50:07;21.40;85.20
43346;DHT22;28937;51.160;4.146;2022-07-23T04:52:32;21.40;85.20
43346;DHT22;28937;51.160;4.146;2022-07-23T04:54:58;21.40;85.20
43346;DHT22;28937;51.160;4.146;2022-07-23T04:57:24;21.40;85.30
43346;DHT22;28937;51.160;4.146;2022-07-23T04:59:49;21.40;85.50
43346;DHT22;28937;51.160;4.146;2022-07-23T05:02:15;21.40;85.60
43346;DHT22;28937;51.160;4.146;2022-07-23T05:04:40;21.40;85.50
43346;DHT22;28937;51.160;4.146;2022-07-23T05:07:06;21.40;85.70
43346;DHT22;28937;51.160;4.146;2022-07-23T05:09:31;21.40;85.80
43346;DHT22;28937;51.160;4.146;2022-07-23T05:11:57;21.40;85.80
43346;DHT22;28937;51.160;4.146;2022-07-23T05:14:23;21.40;86.00
43346;DHT22;28937;51.160;4.146;2022-07-23T05:16:48;21.40;86.30
43346;DHT22;28937;51.160;4.146;2022-07-23T05:19:14;21.40;86.10
43346;DHT22;28937;51.160;4.146;2022-07-23T05:21:39;21.40;86.10
43346;DHT22;28937;51.160;4.146;2022-07-23T05:24:05;21.40;86.00
43346;DHT22;28937;51.160;4.146;2022-07-23T05:26:31;21.40;85.90
43346;DHT22;28937;51.160;4.146;2022-07-23T05:28:57;21.40;86.10
43346;DHT22;28937;51.160;4.146;2022-07-23T05:31:22;21.40;86.20
43346;DHT22;28937;51.160;4.146;2022-07-23T05:33:48;21.40;86.50
43346;DHT22;28937;51.160;4.146;2022-07-23T05:36:14;21.30;86.50
43346;DHT22;28937;51.160;4.146;2022-07-23T05:38:39;21.30;86.70
43346;DHT22;28937;51.160;4.146;2022-07-23T05:41:05;21.30;86.70
43346;DHT22;28937;51.160;4.146;2022-07-23T05:43:30;21.30;86.90
43346;DHT22;28937;51.160;4.146;2022-07-23T05:45:56;21.20;87.10
43346;DHT22;28937;51.160;4.146;2022-07-23T05:48:22;21.30;87.00
43346;DHT22;28937;51.160;4.146;2022-07-23T05:50:47;21.30;87.30
43346;DHT22;28937;51.160;4.146;2022-07-23T05:53:13;21.30;87.50
43346;DHT22;28937;51.160;4.146;2022-07-23T05:55:39;21.30;87.40
43346;DHT22;28937;51.160;4.146;2022-07-23T05:58:04;21.40;87.60
43346;DHT22;28937;51.160;4.146;2022-07-23T06:00:30;21.50;87.50
43346;DHT22;28937;51.160;4.146;2022-07-23T06:02:56;21.60;87.70
43346;DHT22;28937;51.160;4.146;2022-07-23T06:05:22;21.70;87.40
43346;DHT22;28937;51.160;4.146;2022-07-23T06:07:48;21.80;87.40
43346;DHT22;28937;51.160;4.146;2022-07-23T06:10:14;21.80;87.60
43346;DHT22;28937;51.160;4.146;2022-07-23T06:12:40;21.90;88.40
43346;DHT22;28937;51.160;4.146;2022-07-23T06:15:07;21.90;88.40
43346;DHT22;28937;51.160;4.146;2022-07-23T06:17:32;22.00;88.20
43346;DHT22;28937;51.160;4.146;2022-07-23T06:19:58;22.00;87.60
43346;DHT22;28937;51.160;4.146;2022-07-23T06:22:24;22.10;87.30
43346;DHT22;28937;51.160;4.146;2022-07-23T06:24:50;22.10;84.80
43346;DHT22;28937;51.160;4.146;2022-07-23T06:27:17;21.70;86.50
43346;DHT22;28937;51.160;4.146;2022-07-23T06:29:43;21.30;87.30
43346;DHT22;28937;51.160;4.146;2022-07-23T06:32:08;21.20;88.40
43346;DHT22;28937;51.160;4.146;2022-07-23T06:34:34;21.30;88.20
43346;DHT22;28937;51.160;4.146;2022-07-23T06:37:00;21.30;87.20
43346;DHT22;28937;51.160;4.146;2022-07-23T06:39:25;21.40;86.50
43346;DHT22;28937;51.160;4.146;2022-07-23T06:41:51;21.30;87.60
43346;DHT22;28937;51.160;4.146;2022-07-23T06:44:17;21.20;88.00
43346;DHT22;28937;51.160;4.146;2022-07-23T06:46:43;21.20;87.70
43346;DHT22;28937;51.160;4.146;2022-07-23T06:49:08;21.00;87.50
43346;DHT22;28937;51.160;4.146;2022-07-23T06:51:34;21.00;87.70
43346;DHT22;28937;51.160;4.146;2022-07-23T06:54:00;20.90;87.60
43346;DHT22;28937;51.160;4.146;2022-07-23T06:56:26;20.90;87.70
43346;DHT22;28937;51.160;4.146;2022-07-23T06:58:51;21.10;87.90
43346;DHT22;28937;51.160;4.146;2022-07-23T07:01:17;21.20;87.30
43346;DHT22;28937;51.160;4.146;2022-07-23T07:03:43;21.40;86.70
43346;DHT22;28937;51.160;4.146;2022-07-23T07:06:08;21.70;86.50
43346;DHT22;28937;51.160;4.146;2022-07-23T07:08:34;21.70;85.60
43346;DHT22;28937;51.160;4.146;2022-07-23T07:11:00;21.40;86.30
43346;DHT22;28937;51.160;4.146;2022-07-23T07:13:25;21.30;86.60
43346;DHT22;28937;51.160;4.146;2022-07-23T07:15:51;21.60;86.70
43346;DHT22;28937;51.160;4.146;2022-07-23T07:18:16;21.60;85.60
43346;DHT22;28937;51.160;4.146;2022-07-23T07:20:42;21.90;85.70
43346;DHT22;28937;51.160;4.146;2022-07-23T07:23:07;21.60;86.90
43346;DHT22;28937;51.160;4.146;2022-07-23T07:25:33;21.80;86.60
43346;DHT22;28937;51.160;4.146;2022-07-23T07:27:58;22.20;85.50
43346;DHT22;28937;51.160;4.146;2022-07-23T07:30:24;22.60;83.90
43346;DHT22;28937;51.160;4.146;2022-07-23T07:32:50;23.00;83.00
43346;DHT22;28937;51.160;4.146;2022-07-23T07:35:15;23.10;82.70
43346;DHT22;28937;51.160;4.146;2022-07-23T07:37:41;23.40;82.50
43346;DHT22;28937;51.160;4.146;2022-07-23T07:40:07;23.40;82.00
43346;DHT22;28937;51.160;4.146;2022-07-23T07:42:34;23.40;82.70
43346;DHT22;28937;51.160;4.146;2022-07-23T07:45:00;23.40;82.80
43346;DHT22;28937;51.160;4.146;2022-07-23T07:47:28;23.40;82.40
43346;DHT22;28937;51.160;4.146;2022-07-23T07:49:53;23.40;82.10
43346;DHT22;28937;51.160;4.146;2022-07-23T07:52:19;23.50;81.40
43346;DHT22;28937;51.160;4.146;2022-07-23T07:54:44;23.70;80.50
43346;DHT22;28937;51.160;4.146;2022-07-23T07:57:10;23.90;79.70
43346;DHT22;28937;51.160;4.146;2022-07-23T07:59:35;24.10;78.50
43346;DHT22;28937;51.160;4.146;2022-07-23T08:02:01;24.00;78.60
43346;DHT22;28937;51.160;4.146;2022-07-23T08:04:27;24.00;79.00
43346;DHT22;28937;51.160;4.146;2022-07-23T08:06:52;23.90;79.70
43346;DHT22;28937;51.160;4.146;2022-07-23T08:09:18;23.90;80.10
43346;DHT22;28937;51.160;4.146;2022-07-23T08:11:43;23.90;80.20
43346;DHT22;28937;51.160;4.146;2022-07-23T08:14:09;23.90;80.00
43346;DHT22;28937;51.160;4.146;2022-07-23T08:16:36;24.00;79.70
43346;DHT22;28937;51.160;4.146;2022-07-23T08:19:02;24.00;79.50
43346;DHT22;28937;51.160;4.146;2022-07-23T08:21:27;24.00;79.00
43346;DHT22;28937;51.160;4.146;2022-07-23T08:23:53;24.10;78.20
43346;DHT22;28937;51.160;4.146;2022-07-23T08:26:18;24.20;77.00
43346;DHT22;28937;51.160;4.146;2022-07-23T08:28:44;24.40;75.40
43346;DHT22;28937;51.160;4.146;2022-07-23T08:31:09;24.60;73.90
43346;DHT22;28937;51.160;4.146;2022-07-23T08:33:37;24.60;75.10
43346;DHT22;28937;51.160;4.146;2022-07-23T08:36:03;24.30;75.90
43346;DHT22;28937;51.160;4.146;2022-07-23T08:38:29;24.30;76.30
43346;DHT22;28937;51.160;4.146;2022-07-23T08:40:55;24.30;75.60
43346;DHT22;28937;51.160;4.146;2022-07-23T08:43:31;24.30;75.10
43346;DHT22;28937;51.160;4.146;2022-07-23T08:45:58;24.30;74.80
43346;DHT22;28937;51.160;4.146;2022-07-23T08:48:27;24.30;74.60
43346;DHT22;28937;51.160;4.146;2022-07-23T08:50:55;24.30;74.30
43346;DHT22;28937;51.160;4.146;2022-07-23T08:53:22;24.40;74.50
43346;DHT22;28937;51.160;4.146;2022-07-23T08:55:51;24.60;73.40
43346;DHT22;28937;51.160;4.146;2022-07-23T08:58:17;24.70;72.70
43346;DHT22;28937;51.160;4.146;2022-07-23T09:00:44;24.90;71.10
43346;DHT22;28937;51.160;4.146;2022-07-23T09:03:19;24.80;72.40
43346;DHT22;28937;51.160;4.146;2022-07-23T09:05:46;24.80;72.60
43346;DHT22;28937;51.160;4.146;2022-07-23T09:08:16;24.60;73.40
43346;DHT22;28937;51.160;4.146;2022-07-23T09:13:36;24.60;73.60
43346;DHT22;28937;51.160;4.146;2022-07-23T09:18:49;24.70;72.50
43346;DHT22;28937;51.160;4.146;2022-07-23T09:21:26;24.70;72.70
43346;DHT22;28937;51.160;4.146;2022-07-23T09:24:02;24.70;73.10
43346;DHT22;28937;51.160;4.146;2022-07-23T09:29:08;24.70;72.70
43346;DHT22;28937;51.160;4.146;2022-07-23T09:31:50;24.70;73.10
43346;DHT22;28937;51.160;4.146;2022-07-23T09:36:42;24.90;71.10
43346;DHT22;28937;51.160;4.146;2022-07-23T09:39:08;25.10;69.80
43346;DHT22;28937;51.160;4.146;2022-07-23T09:41:38;24.90;70.90
43346;DHT22;28937;51.160;4.146;2022-07-23T09:44:17;24.90;71.60
43346;DHT22;28937;51.160;4.146;2022-07-23T09:46:45;24.80;71.90
43346;DHT22;28937;51.160;4.146;2022-07-23T09:49:20;24.90;70.80
43346;DHT22;28937;51.160;4.146;2022-07-23T09:51:55;25.10;69.90
43346;DHT22;28937;51.160;4.146;2022-07-23T09:54:23;25.10;69.80
43346;DHT22;28937;51.160;4.146;2022-07-23T09:56:51;25.00;70.70
43346;DHT22;28937;51.160;4.146;2022-07-23T09:59:17;24.90;71.40
43346;DHT22;28937;51.160;4.146;2022-07-23T10:01:44;25.10;70.70
43346;DHT22;28937;51.160;4.146;2022-07-23T10:04:11;25.20;70.00
43346;DHT22;28937;51.160;4.146;2022-07-23T10:06:39;25.30;69.50
43346;DHT22;28937;51.160;4.146;2022-07-23T10:09:07;25.40;68.40
43346;DHT22;28937;51.160;4.146;2022-07-23T10:11:34;25.50;67.80
43346;DHT22;28937;51.160;4.146;2022-07-23T10:14:01;25.50;68.10
43346;DHT22;28937;51.160;4.146;2022-07-23T10:16:29;25.50;67.70
43346;DHT22;28937;51.160;4.146;2022-07-23T10:18:55;25.50;68.00
43346;DHT22;28937;51.160;4.146;2022-07-23T10:21:48;25.50;68.30
43346;DHT22;28937;51.160;4.146;2022-07-23T10:24:21;25.50;69.20
43346;DHT22;28937;51.160;4.146;2022-07-23T10:26:55;25.30;70.00
43346;DHT22;28937;51.160;4.146;2022-07-23T10:29:45;25.30;69.30
43346;DHT22;28937;51.160;4.146;2022-07-23T10:37:38;25.10;71.60
43346;DHT22;28937;51.160;4.146;2022-07-23T10:40:23;25.10;72.40
43346;DHT22;28937;51.160;4.146;2022-07-23T10:42:50;25.10;73.20
43346;DHT22;28937;51.160;4.146;2022-07-23T10:45:31;25.10;72.90
43346;DHT22;28937;51.160;4.146;2022-07-23T10:48:23;25.00;73.10
43346;DHT22;28937;51.160;4.146;2022-07-23T10:51:12;25.10;72.30
43346;DHT22;28937;51.160;4.146;2022-07-23T10:56:17;25.10;71.20
43346;DHT22;28937;51.160;4.146;2022-07-23T10:58:48;25.00;71.40
43346;DHT22;28937;51.160;4.146;2022-07-23T11:01:43;25.10;70.80
43346;DHT22;28937;51.160;4.146;2022-07-23T11:04:08;25.10;71.00
43346;DHT22;28937;51.160;4.146;2022-07-23T11:09:42;25.00;70.60
43346;DHT22;28937;51.160;4.146;2022-07-23T11:15:12;25.00;71.30
43346;DHT22;28937;51.160;4.146;2022-07-23T11:20:21;25.10;74.00
43346;DHT22;28937;51.160;4.146;2022-07-23T11:22:52;25.00;75.20
43346;DHT22;28937;51.160;4.146;2022-07-23T11:27:50;25.10;78.90
43346;DHT22;28937;51.160;4.146;2022-07-23T11:35:41;25.10;76.90
43346;DHT22;28937;51.160;4.146;2022-07-23T11:38:20;25.10;76.60
43346;DHT22;28937;51.160;4.146;2022-07-23T11:40:49;25.10;75.90
43346;DHT22;28937;51.160;4.146;2022-07-23T11:43:16;25.10;74.80
43346;DHT22;28937;51.160;4.146;2022-07-23T11:45:45;25.10;73.60
43346;DHT22;28937;51.160;4.146;2022-07-23T11:48:26;25.20;71.80
43346;DHT22;28937;51.160;4.146;2022-07-23T11:50:53;25.20;73.10
43346;DHT22;28937;51.160;4.146;2022-07-23T11:53:31;25.20;73.30
43346;DHT22;28937;51.160;4.146;2022-07-23T11:56:11;25.20;71.90
43346;DHT22;28937;51.160;4.146;2022-07-23T11:58:38;25.20;71.10
43346;DHT22;28937;51.160;4.146;2022-07-23T12:01:04;25.20;71.50
43346;DHT22;28937;51.160;4.146;2022-07-23T12:03:30;25.30;69.50
43346;DHT22;28937;51.160;4.146;2022-07-23T12:05:57;25.30;68.40
43346;DHT22;28937;51.160;4.146;2022-07-23T12:08:23;25.30;69.80
43346;DHT22;28937;51.160;4.146;2022-07-23T12:10:49;25.40;67.20
43346;DHT22;28937;51.160;4.146;2022-07-23T12:13:17;25.50;65.10
43346;DHT22;28937;51.160;4.146;2022-07-23T12:15:48;25.40;68.40
43346;DHT22;28937;51.160;4.146;2022-07-23T12:18:24;25.40;69.10
43346;DHT22;28937;51.160;4.146;2022-07-23T12:20:52;25.30;69.20
43346;DHT22;28937;51.160;4.146;2022-07-23T12:23:20;25.30;69.10
43346;DHT22;28937;51.160;4.146;2022-07-23T12:25:47;25.30;69.20
43346;DHT22;28937;51.160;4.146;2022-07-23T12:28:19;25.30;68.10
43346;DHT22;28937;51.160;4.146;2022-07-23T12:30:49;25.30;68.00
43346;DHT22;28937;51.160;4.146;2022-07-23T12:33:22;25.30;67.40
43346;DHT22;28937;51.160;4.146;2022-07-23T12:35:48;25.30;67.70
43346;DHT22;28937;51.160;4.146;2022-07-23T12:38:16;25.40;67.90
43346;DHT22;28937;51.160;4.146;2022-07-23T12:40:50;25.30;68.10
43346;DHT22;28937;51.160;4.146;2022-07-23T12:45:55;25.40;67.90
43346;DHT22;28937;51.160;4.146;2022-07-23T12:48:28;25.50;66.20
43346;DHT22;28937;51.160;4.146;2022-07-23T12:51:05;25.50;67.30
43346;DHT22;28937;51.160;4.146;2022-07-23T12:53:45;25.40;67.00
43346;DHT22;28937;51.160;4.146;2022-07-23T12:56:17;25.40;67.50
43346;DHT22;28937;51.160;4.146;2022-07-23T12:58:50;25.40;67.30
43346;DHT22;28937;51.160;4.146;2022-07-23T13:01:22;25.50;67.30
43346;DHT22;28937;51.160;4.146;2022-07-23T13:06:22;25.50;67.50
43346;DHT22;28937;51.160;4.146;2022-07-23T13:08:47;25.60;66.80
43346;DHT22;28937;51.160;4.146;2022-07-23T13:11:13;25.70;64.00
43346;DHT22;28937;51.160;4.146;2022-07-23T13:13:39;25.80;63.30
43346;DHT22;28937;51.160;4.146;2022-07-23T13:16:04;25.80;64.60
43346;DHT22;28937;51.160;4.146;2022-07-23T13:18:30;25.80;63.70
43346;DHT22;28937;51.160;4.146;2022-07-23T13:20:56;25.80;63.80
43346;DHT22;28937;51.160;4.146;2022-07-23T13:23:22;25.70;65.50
43346;DHT22;28937;51.160;4.146;2022-07-23T13:25:49;25.70;66.80
43346;DHT22;28937;51.160;4.146;2022-07-23T13:28:16;25.70;67.10
43346;DHT22;28937;51.160;4.146;2022-07-23T13:30:42;25.70;66.90
43346;DHT22;28937;51.160;4.146;2022-07-23T13:33:08;25.60;67.50
43346;DHT22;28937;51.160;4.146;2022-07-23T13:35:35;25.70;66.50
43346;DHT22;28937;51.160;4.146;2022-07-23T13:38:02;25.70;66.70
43346;DHT22;28937;51.160;4.146;2022-07-23T13:40:28;25.70;67.60
43346;DHT22;28937;51.160;4.146;2022-07-23T13:42:54;25.70;67.60
43346;DHT22;28937;51.160;4.146;2022-07-23T13:45:19;25.70;67.50
43346;DHT22;28937;51.160;4.146;2022-07-23T13:47:45;25.90;64.80
43346;DHT22;28937;51.160;4.146;2022-07-23T13:50:11;25.80;67.20
43346;DHT22;28937;51.160;4.146;2022-07-23T13:52:37;25.80;67.70
43346;DHT22;28937;51.160;4.146;2022-07-23T13:55:06;25.80;67.90
43346;DHT22;28937;51.160;4.146;2022-07-23T13:57:32;25.80;67.80
43346;DHT22;28937;51.160;4.146;2022-07-23T13:59:58;25.70;67.90
43346;DHT22;28937;51.160;4.146;2022-07-23T14:02:24;25.80;67.70
43346;DHT22;28937;51.160;4.146;2022-07-23T14:04:50;25.80;68.30
43346;DHT22;28937;51.160;4.146;2022-07-23T14:07:16;25.70;68.60
43346;DHT22;28937;51.160;4.146;2022-07-23T14:09:43;25.70;68.60
43346;DHT22;28937;51.160;4.146;2022-07-23T14:12:08;25.80;68.90
43346;DHT22;28937;51.160;4.146;2022-07-23T14:14:34;25.80;68.50
43346;DHT22;28937;51.160;4.146;2022-07-23T14:17:00;25.90;68.60
43346;DHT22;28937;51.160;4.146;2022-07-23T14:19:25;25.90;68.90
43346;DHT22;28937;51.160;4.146;2022-07-23T14:21:51;25.90;68.30
43346;DHT22;28937;51.160;4.146;2022-07-23T14:24:17;26.00;66.20
43346;DHT22;28937;51.160;4.146;2022-07-23T14:26:42;26.10;65.50
43346;DHT22;28937;51.160;4.146;2022-07-23T14:29:08;26.00;66.70
43346;DHT22;28937;51.160;4.146;2022-07-23T14:31:34;26.00;68.90
43346;DHT22;28937;51.160;4.146;2022-07-23T14:34:01;25.90;67.80
43346;DHT22;28937;51.160;4.146;2022-07-23T14:36:26;25.90;68.70
43346;DHT22;28937;51.160;4.146;2022-07-23T14:38:52;25.90;68.30
43346;DHT22;28937;51.160;4.146;2022-07-23T14:41:18;25.90;68.50
43346;DHT22;28937;51.160;4.146;2022-07-23T14:43:44;25.90;68.70
43346;DHT22;28937;51.160;4.146;2022-07-23T14:46:11;25.90;68.50
43346;DHT22;28937;51.160;4.146;2022-07-23T14:48:37;26.00;68.20
43346;DHT22;28937;51.160;4.146;2022-07-23T14:51:03;26.00;69.10
43346;DHT22;28937;51.160;4.146;2022-07-23T14:53:30;26.00;69.00
43346;DHT22;28937;51.160;4.146;2022-07-23T14:55:55;26.00;68.90
43346;DHT22;28937;51.160;4.146;2022-07-23T14:58:23;26.00;69.10
43346;DHT22;28937;51.160;4.146;2022-07-23T15:00:49;26.00;68.60
43346;DHT22;28937;51.160;4.146;2022-07-23T15:03:15;26.00;68.10
43346;DHT22;28937;51.160;4.146;2022-07-23T15:05:41;26.00;68.00
43346;DHT22;28937;51.160;4.146;2022-07-23T15:08:07;26.00;67.20
43346;DHT22;28937;51.160;4.146;2022-07-23T15:10:33;26.10;67.10
43346;DHT22;28937;51.160;4.146;2022-07-23T15:12:58;26.10;67.10
43346;DHT22;28937;51.160;4.146;2022-07-23T15:15:24;26.10;67.30
43346;DHT22;28937;51.160;4.146;2022-07-23T15:17:50;26.10;67.40
43346;DHT22;28937;51.160;4.146;2022-07-23T15:20:15;26.10;67.40
43346;DHT22;28937;51.160;4.146;2022-07-23T15:22:41;26.10;67.40
43346;DHT22;28937;51.160;4.146;2022-07-23T15:25:07;26.10;67.60
43346;DHT22;28937;51.160;4.146;2022-07-23T15:27:33;26.10;67.60
43346;DHT22;28937;51.160;4.146;2022-07-23T15:29:59;26.10;67.60
43346;DHT22;28937;51.160;4.146;2022-07-23T15:32:25;26.20;67.60
43346;DHT22;28937;51.160;4.146;2022-07-23T15:34:52;26.20;68.00
43346;DHT22;28937;51.160;4.146;2022-07-23T15:37:18;26.20;68.10
43346;DHT22;28937;51.160;4.146;2022-07-23T15:39:44;26.20;68.30
43346;DHT22;28937;51.160;4.146;2022-07-23T15:42:09;26.20;68.50
43346;DHT22;28937;51.160;4.146;2022-07-23T15:44:35;26.20;68.90
43346;DHT22;28937;51.160;4.146;2022-07-23T15:47:01;26.40;66.60
43346;DHT22;28937;51.160;4.146;2022-07-23T15:49:27;26.30;68.00
43346;DHT22;28937;51.160;4.146;2022-07-23T15:51:54;26.20;69.20
43346;DHT22;28937;51.160;4.146;2022-07-23T15:54:20;26.20;69.30
43346;DHT22;28937;51.160;4.146;2022-07-23T15:56:46;26.20;69.30
43346;DHT22;28937;51.160;4.146;2022-07-23T15:59:12;26.20;69.70
43346;DHT22;28937;51.160;4.146;2022-07-23T16:01:38;26.30;69.50
43346;DHT22;28937;51.160;4.146;2022-07-23T16:04:04;26.20;69.50
43346;DHT22;28937;51.160;4.146;2022-07-23T16:06:32;26.30;69.50
43346;DHT22;28937;51.160;4.146;2022-07-23T16:08:57;26.20;69.60